Time;durP1;ratioP1;P1;durP2;ratioP2;P2;SDS_P1;SDS_P2;PMS_P1;PMS_P2;Temp;Humidity;BMP_temperature;BMP_pressure;BME280_temperature;BME280_humidity;BME280_pressure;Samples;Min_cycle;Max_cycle;Signal;HPM_P1;HPM_P2
2024/01/03 00:01:04;;;;;;;0.80;0.80;;;;;;;9.88;92.95;97311.66;7167218;40;20284;31
2024/01/03 00:06:40;;;;;;;1.67;1.00;;;;;;;9.80;92.97;97330.72;7181395;40;20423;31
2024/01/03 00:12:15;;;;;;;0.80;0.60;;;;;;;9.76;92.85;97348.31;7189775;40;20257;31
2024/01/03 00:17:50;;;;;;;0.60;0.60;;;;;;;9.73;93.70;97334.44;7187138;40;20228;31
2024/01/03 00:23:25;;;;;;;0.80;0.77;;;;;;;9.62;94.29;97314.38;7277382;40;20235;31
2024/01/03 00:29:01;;;;;;;1.50;0.85;;;;;;;9.58;95.05;97315.81;7186632;40;20270;31
2024/01/03 00:34:43;;;;;;;1.67;0.80;;;;;;;9.58;94.87;97337.34;7179437;40;20278;31
2024/01/03 00:40:18;;;;;;;2.70;1.10;;;;;;;9.67;94.58;97306.50;7209710;40;20243;31
2024/01/03 00:45:55;;;;;;;1.80;1.13;;;;;;;9.73;94.70;97307.56;7207164;40;20247;31
2024/01/03 00:56:34;;;;;;;2.00;1.10;;;;;;;9.83;94.70;97303.37;7264033;40;20257;31
2024/01/03 01:02:11;;;;;;;4.20;1.55;;;;;;;9.87;94.51;97334.22;7262816;39;20345;31
2024/01/03 01:07:47;;;;;;;3.37;1.30;;;;;;;9.93;94.33;97314.56;7270551;39;20378;31
2024/01/03 01:13:20;;;;;;;4.60;1.60;;;;;;;9.94;94.77;97305.47;7258771;40;20246;31
2024/01/03 01:18:55;;;;;;;3.90;1.40;;;;;;;9.99;94.30;97315.59;7257476;40;20237;31
2024/01/03 01:24:30;;;;;;;7.10;1.50;;;;;;;10.05;94.03;97340.84;7243702;40;20570;31
2024/01/03 01:35:10;;;;;;;3.70;1.60;;;;;;;10.12;93.34;97334.44;7305143;39;20674;31
2024/01/03 01:40:48;;;;;;;3.83;1.43;;;;;;;10.17;93.19;97344.59;7228632;40;20328;31
2024/01/03 01:46:21;;;;;;;4.90;1.53;;;;;;;10.18;93.13;97355.13;7159395;40;20240;31
2024/01/03 01:51:57;;;;;;;3.67;1.30;;;;;;;10.14;93.19;97348.47;7160026;40;20250;31
2024/01/03 01:57:33;;;;;;;5.20;1.60;;;;;;;10.16;93.51;97351.84;7187880;40;20295;31
2024/01/03 02:03:08;;;;;;;6.20;1.60;;;;;;;10.24;92.95;97354.31;7227627;39;20257;31
2024/01/03 02:08:44;;;;;;;3.33;1.50;;;;;;;10.18;93.78;97375.88;6996904;40;20216;31
2024/01/03 02:14:05;;;;;;;7.47;1.83;;;;;;;10.24;92.92;97348.09;7208752;40;20295;31
2024/01/03 02:19:25;;;;;;;5.27;1.60;;;;;;;10.23;93.18;97384.13;7203700;40;20279;31
2024/01/03 02:30:06;;;;;;;4.60;1.50;;;;;;;10.21;90.59;97365.50;7255578;40;20891;31
2024/01/03 02:40:27;;;;;;;4.10;1.50;;;;;;;10.22;92.11;97374.41;7322396;39;21323;31
2024/01/03 02:46:04;;;;;;;4.87;1.43;;;;;;;10.22;92.02;97360.94;7316161;39;20257;31
2024/01/03 02:51:25;;;;;;;3.05;1.35;;;;;;;10.29;92.19;97389.53;7303543;39;20324;31
2024/01/03 02:56:42;;;;;;;4.80;1.23;;;;;;;10.33;91.77;97384.53;7258866;39;20304;31
2024/01/03 03:07:23;;;;;;;3.70;1.80;;;;;;;10.33;91.73;97379.97;7356906;39;20283;31
2024/01/03 03:18:03;;;;;;;4.53;1.80;;;;;;;10.38;91.30;97414.34;7317574;39;20279;31
2024/01/03 03:23:40;;;;;;;4.90;1.47;;;;;;;10.40;90.64;97410.41;7277750;40;20346;31
2024/01/03 03:29:01;;;;;;;6.47;1.60;;;;;;;10.42;90.50;97385.13;7256959;40;20246;31
2024/01/03 03:34:21;;;;;;;7.00;1.70;;;;;;;10.36;91.08;97401.09;7277214;39;20308;31
2024/01/03 03:39:57;;;;;;;2.40;1.45;;;;;;;10.27;92.39;97401.50;7299029;39;20239;31
2024/01/03 03:45:33;;;;;;;4.67;1.50;;;;;;;10.21;93.60;97411.28;7287183;39;20244;31
2024/01/03 03:50:53;;;;;;;6.65;1.65;;;;;;;10.24;93.20;97404.63;7263184;39;20258;31
2024/01/03 03:56:38;;;;;;;6.10;1.60;;;;;;;10.19;92.71;97399.03;7298962;40;20255;31
2024/01/03 04:01:59;;;;;;;9.03;2.20;;;;;;;10.21;91.96;97407.75;7204092;40;20261;31
2024/01/03 04:07:34;;;;;;;8.00;2.10;;;;;;;10.18;91.72;97400.09;7196553;40;20242;31
2024/01/03 04:13:11;;;;;;;5.10;2.00;;;;;;;10.14;91.67;97407.72;7223644;40;20392;31
2024/01/03 04:18:46;;;;;;;6.90;1.80;;;;;;;10.16;90.58;97388.69;7207821;40;20402;31
2024/01/03 04:29:26;;;;;;;7.07;1.83;;;;;;;10.11;89.70;97405.44;7219959;40;20270;31
2024/01/03 04:39:51;;;;;;;6.80;1.50;;;;;;;10.11;90.01;97426.16;7283402;39;20264;31
2024/01/03 04:50:29;;;;;;;6.15;1.75;;;;;;;10.07;89.95;97428.44;7330040;39;20233;31
2024/01/03 04:55:49;;;;;;;5.00;1.80;;;;;;;10.04;91.00;97417.25;7281300;39;20237;31
2024/01/03 05:01:25;;;;;;;7.33;2.27;;;;;;;10.00;91.70;97422.22;7305521;39;20260;31
2024/01/03 05:07:01;;;;;;;4.55;1.70;;;;;;;9.95;91.94;97414.78;7239443;40;20247;31
2024/01/03 05:12:22;;;;;;;3.90;1.50;;;;;;;9.98;92.63;97437.75;7237012;40;20301;31
2024/01/03 05:17:57;;;;;;;5.60;1.70;;;;;;;9.99;92.09;97409.78;7208907;40;20228;31
2024/01/03 05:23:33;;;;;;;3.73;1.70;;;;;;;9.95;91.97;97412.09;7250198;40;20235;31
2024/01/03 05:28:53;;;;;;;3.70;1.90;;;;;;;10.01;91.73;97434.63;7254856;39;20252;31
2024/01/03 05:34:15;;;;;;;8.25;2.00;;;;;;;10.02;91.55;97441.69;7234664;40;20242;31
2024/01/03 05:39:49;;;;;;;5.55;1.70;;;;;;;10.01;91.73;97439.19;7259171;40;20307;31
2024/01/03 05:45:24;;;;;;;5.50;1.70;;;;;;;9.99;90.57;97462.78;7214183;40;20382;31
2024/01/03 05:50:45;;;;;;;3.90;1.13;;;;;;;9.99;89.40;97438.56;7196444;40;20387;31
2024/01/03 05:56:21;;;;;;;4.80;1.60;;;;;;;9.93;89.77;97446.44;7184598;40;20391;31
2024/01/03 06:01:42;;;;;;;7.27;4.10;;;;;;;9.94;90.37;97433.81;7208156;40;21475;31
2024/01/03 06:07:03;;;;;;;5.60;2.30;;;;;;;9.90;91.30;97440.63;7210603;40;20257;31
2024/01/03 06:12:36;;;;;;;5.65;1.95;;;;;;;9.86;91.23;97453.69;7224331;40;20379;31
2024/01/03 06:17:57;;;;;;;6.80;1.80;;;;;;;9.86;91.97;97436.69;7203728;40;20418;31
2024/01/03 06:23:17;;;;;;;5.00;1.50;;;;;;;9.84;92.25;97439.59;7244573;40;20238;31
2024/01/03 06:28:53;;;;;;;3.80;1.40;;;;;;;9.80;92.30;97443.72;7206103;40;20283;31
2024/01/03 06:34:28;;;;;;;5.30;1.75;;;;;;;9.87;92.52;97446.44;7178879;40;20293;31
2024/01/03 06:40:03;;;;;;;3.90;1.50;;;;;;;9.86;92.36;97439.41;7187199;40;20457;31
2024/01/03 06:45:39;;;;;;;3.25;1.60;;;;;;;9.89;92.62;97429.03;7156990;40;20236;31
2024/01/03 06:51:02;;;;;;;7.35;1.95;;;;;;;9.95;92.78;97422.00;7187508;40;20434;31
2024/01/03 06:56:35;;;;;;;6.45;1.60;;;;;;;10.01;92.23;97413.09;7215327;40;20478;31
2024/01/03 07:02:12;;;;;;;3.60;1.55;;;;;;;10.06;92.19;97420.56;7226669;40;20228;31
2024/01/03 07:07:33;;;;;;;3.90;1.30;;;;;;;10.14;91.30;97431.09;7198518;40;20317;31
2024/01/03 07:12:54;;;;;;;4.60;1.50;;;;;;;10.17;92.01;97401.97;7223884;40;20254;31
2024/01/03 07:18:30;;;;;;;5.10;1.67;;;;;;;10.16;92.72;97418.31;7235256;40;21487;31
2024/01/03 07:24:05;;;;;;;5.77;2.17;;;;;;;10.18;93.35;97430.50;7198745;40;20324;31
2024/01/03 07:29:25;;;;;;;4.90;1.45;;;;;;;10.23;92.36;97419.97;7175817;40;20304;31
2024/01/03 07:35:00;;;;;;;4.10;1.70;;;;;;;10.25;92.72;97425.97;7217311;40;20395;31
2024/01/03 07:40:35;;;;;;;6.00;1.63;;;;;;;10.29;91.62;97411.06;7202440;40;20520;31
2024/01/03 07:51:12;;;;;;;9.10;2.10;;;;;;;10.37;91.86;97404.63;7226067;40;21789;31
2024/01/03 07:56:32;;;;;;;8.50;1.80;;;;;;;10.49;90.83;97429.88;7224318;40;20274;31
2024/01/03 08:07:13;;;;;;;9.77;2.03;;;;;;;10.45;91.45;97441.28;7234178;40;20753;31
2024/01/03 08:12:29;;;;;;;8.20;1.85;;;;;;;10.43;92.87;97417.25;7177621;40;20266;31
2024/01/03 08:17:50;;;;;;;6.33;2.77;;;;;;;10.36;93.22;97411.03;7219290;40;20246;31
2024/01/03 08:23:27;;;;;;;3.73;1.70;;;;;;;10.33;93.22;97411.47;7256816;40;20335;31
2024/01/03 08:29:03;;;;;;;4.40;1.50;;;;;;;10.35;93.29;97393.25;7286133;39;20340;31
2024/01/03 08:34:23;;;;;;;4.50;1.70;;;;;;;10.40;93.45;97402.34;7259124;40;20802;31
2024/01/03 08:39:55;;;;;;;5.10;1.30;;;;;;;10.44;92.31;97399.25;7277262;40;20252;31
2024/01/03 08:45:15;;;;;;;2.97;1.40;;;;;;;10.54;91.61;97419.31;7217481;40;20242;31
2024/01/03 08:50:51;;;;;;;3.37;1.20;;;;;;;10.56;91.10;97411.03;7221968;40;20312;31
2024/01/03 08:56:30;;;;;;;5.63;1.77;;;;;;;10.59;91.54;97435.66;7188069;40;20339;31
2024/01/03 09:02:05;;;;;;;3.87;1.40;;;;;;;10.60;91.40;97415.78;7146809;40;20315;31
2024/01/03 09:07:23;;;;;;;3.57;1.50;;;;;;;10.65;91.01;97442.09;6991994;40;21001;31
2024/01/03 09:12:57;;;;;;;5.43;1.40;;;;;;;10.66;90.99;97424.87;7167757;40;20324;31
2024/01/03 09:18:32;;;;;;;6.03;1.90;;;;;;;10.68;91.17;97455.13;7209110;40;20262;31
2024/01/03 09:23:52;;;;;;;2.20;1.23;;;;;;;10.64;91.19;97443.94;7216053;40;20249;31
2024/01/03 09:29:29;;;;;;;2.73;1.40;;;;;;;10.59;91.33;97457.22;7210680;40;20259;31
2024/01/03 09:39:53;;;;;;;3.50;1.30;;;;;;;10.73;89.99;97450.78;7269660;39;21710;31
2024/01/03 09:45:30;;;;;;;3.50;1.40;;;;;;;10.76;89.25;97444.12;7345034;39;20336;31
2024/01/03 09:55:54;;;;;;;3.56;1.08;;;;;;;10.81;88.51;97480.19;7300422;39;20858;31
2024/01/03 10:06:35;;;;;;;2.33;1.30;;;;;;;10.72;88.75;97503.00;7310252;39;20263;31
2024/01/03 10:12:10;;;;;;;6.90;1.20;;;;;;;10.68;87.31;97500.94;7317708;39;20354;31
2024/01/03 10:17:45;;;;;;;3.80;1.30;;;;;;;10.70;87.79;97506.97;7284141;39;20307;31
2024/01/03 10:23:34;;;;;;;2.60;1.20;;;;;;;10.66;87.76;97503.81;7276900;40;20355;31
2024/01/03 10:29:17;;;;;;;2.60;1.20;;;;;;;10.60;88.47;97496.59;7189583;40;20242;31
2024/01/03 10:34:38;;;;;;;4.15;1.20;;;;;;;10.64;88.19;97513.16;7109184;40;20245;31
2024/01/03 10:40:13;;;;;;;3.70;1.75;;;;;;;10.69;89.07;97500.75;7206921;40;20253;31
2024/01/03 10:45:33;;;;;;;3.80;1.40;;;;;;;10.83;88.98;97509.63;7243172;39;20378;31
2024/01/03 10:51:09;;;;;;;2.83;1.33;;;;;;;10.89;88.34;97487.22;7301911;39;20285;31
2024/01/03 10:56:46;;;;;;;3.70;1.00;;;;;;;10.85;88.53;97513.75;7238900;39;20380;31
2024/01/03 11:02:21;;;;;;;3.70;1.30;;;;;;;10.75;90.46;97483.72;7224594;40;20231;31
2024/01/03 11:07:56;;;;;;;2.67;1.00;;;;;;;10.64;91.43;97470.87;7206350;40;20243;31
2024/01/03 11:13:41;;;;;;;4.63;1.57;;;;;;;10.76;93.25;97487.25;7171492;40;20267;31
2024/01/03 11:19:16;;;;;;;5.55;1.20;;;;;;;10.75;92.44;97481.03;7141960;40;20407;31
2024/01/03 11:25:00;;;;;;;4.77;1.60;;;;;;;10.86;93.08;97495.72;7154652;40;20377;31
2024/01/03 11:30:58;;;;;;;4.57;1.20;;;;;;;10.89;92.02;97491.78;7212418;40;20296;31
2024/01/03 11:36:48;;;;;;;4.00;1.10;;;;;;;10.85;91.68;97473.34;7229711;40;20289;31
2024/01/03 11:42:20;;;;;;;6.67;1.70;;;;;;;10.85;92.69;97499.47;7256089;40;20231;31
2024/01/03 11:47:57;;;;;;;7.77;1.97;;;;;;;10.87;93.21;97488.47;7239831;40;20281;31
2024/01/03 11:53:32;;;;;;;6.77;2.00;;;;;;;11.06;92.31;97477.63;7259055;40;20264;31
2024/01/03 11:58:55;;;;;;;6.60;1.80;;;;;;;11.10;92.10;97473.47;7264556;40;20256;31
2024/01/03 12:04:28;;;;;;;6.65;2.10;;;;;;;11.08;91.38;97466.66;7218411;40;20258;31
2024/01/03 12:10:03;;;;;;;13.80;3.40;;;;;;;11.08;91.14;97464.78;7158639;40;20270;31
2024/01/03 12:15:37;;;;;;;6.00;1.90;;;;;;;11.07;91.68;97441.56;7125171;40;20248;31
2024/01/03 12:21:11;;;;;;;6.35;2.15;;;;;;;11.06;92.43;97458.75;7138982;40;20304;31
2024/01/03 12:26:43;;;;;;;6.15;1.80;;;;;;;11.14;90.73;97414.56;7185989;40;20290;31
2024/01/03 12:32:24;;;;;;;2.43;1.27;;;;;;;11.17;88.95;97430.31;7195880;40;20258;31
2024/01/03 12:38:00;;;;;;;4.33;1.47;;;;;;;11.14;87.63;97412.72;7209860;40;20309;31
2024/01/03 12:43:21;;;;;;;4.73;1.60;;;;;;;11.19;87.62;97409.34;7232408;40;20301;31
2024/01/03 12:48:42;;;;;;;4.15;1.65;;;;;;;11.22;86.61;97406.25;7252685;39;20347;31
2024/01/03 12:54:18;;;;;;;5.67;1.90;;;;;;;11.12;86.38;97404.00;7279224;39;20434;31
2024/01/03 12:59:39;;;;;;;4.45;1.60;;;;;;;11.10;86.53;97397.97;7194673;40;20274;31
2024/01/03 13:05:14;;;;;;;4.20;1.50;;;;;;;11.13;86.04;97402.13;7236874;40;20325;31
2024/01/03 13:10:50;;;;;;;3.95;1.50;;;;;;;11.14;84.65;97403.78;7266121;39;20353;31
2024/01/03 13:21:39;;;;;;;3.97;1.60;;;;;;;11.19;84.33;97379.69;7295469;39;21541;31
2024/01/03 13:32:16;;;;;;;4.27;1.87;;;;;;;11.16;83.43;97412.47;7258780;40;21264;31
2024/01/03 13:37:36;;;;;;;7.30;1.77;;;;;;;11.20;84.02;97365.16;7241070;40;20312;31
2024/01/03 13:42:54;;;;;;;4.90;1.63;;;;;;;11.21;84.22;97383.00;7301337;39;20244;31
2024/01/03 13:48:29;;;;;;;5.75;2.40;;;;;;;11.15;83.71;97383.84;7318731;39;20250;31
2024/01/03 13:54:04;;;;;;;5.47;2.13;;;;;;;11.19;84.80;97401.25;7228898;40;20254;31
2024/01/03 13:59:24;;;;;;;5.10;2.30;;;;;;;11.14;84.71;97368.75;7188023;40;20251;31
2024/01/03 14:04:59;;;;;;;5.10;1.97;;;;;;;11.09;85.12;97368.56;7177971;40;20414;31
2024/01/03 14:10:19;;;;;;;4.00;1.30;;;;;;;11.11;85.21;97361.06;7188643;40;20245;31
2024/01/03 14:15:40;;;;;;;3.47;1.20;;;;;;;11.12;84.24;97352.75;7253884;40;20264;31
2024/01/03 14:26:24;;;;;;;2.77;1.00;;;;;;;11.09;83.95;97382.88;7248699;40;20728;31
2024/01/03 14:31:59;;;;;;;6.10;1.60;;;;;;;11.06;83.57;97352.78;7262477;39;20241;31
2024/01/03 14:37:34;;;;;;;3.15;1.50;;;;;;;11.07;84.23;97357.13;7232897;40;20314;31
2024/01/03 14:43:30;;;;;;;3.10;1.60;;;;;;;11.02;85.46;97354.25;7279610;39;20345;31
2024/01/03 14:48:46;;;;;;;2.50;1.30;;;;;;;11.00;84.81;97349.09;7228333;40;20247;31
2024/01/03 14:54:21;;;;;;;3.10;1.80;;;;;;;10.99;84.86;97343.91;7208572;40;20232;31
2024/01/03 14:59:57;;;;;;;4.73;1.90;;;;;;;10.97;84.73;97346.81;7229668;40;21225;31
2024/01/03 15:05:18;;;;;;;5.43;2.00;;;;;;;10.98;84.95;97344.94;7257888;40;20343;31
2024/01/03 15:10:39;;;;;;;4.73;1.93;;;;;;;11.00;84.26;97322.12;7260144;40;20276;31
2024/01/03 15:16:11;;;;;;;5.30;2.20;;;;;;;10.97;83.76;97338.72;7266681;40;20307;31
2024/01/03 15:26:36;;;;;;;4.40;1.60;;;;;;;11.02;83.71;97319.22;7235662;40;20403;31
2024/01/03 15:32:13;;;;;;;7.85;2.25;;;;;;;10.97;83.27;97305.56;7269275;39;20264;31
2024/01/03 15:37:33;;;;;;;4.65;2.50;;;;;;;11.03;83.06;97308.22;7258688;39;20351;31
2024/01/03 15:42:56;;;;;;;5.55;2.90;;;;;;;11.06;83.04;97299.69;7258891;40;20245;31
2024/01/03 15:48:26;;;;;;;7.07;3.27;;;;;;;11.02;81.92;97292.25;7066857;40;20507;31
2024/01/03 15:53:46;;;;;;;7.30;3.23;;;;;;;11.05;82.64;97291.84;7293017;39;20252;31
2024/01/03 15:59:07;;;;;;;4.47;2.57;;;;;;;10.98;83.79;97288.34;7254781;39;20339;31
2024/01/03 16:04:44;;;;;;;4.30;1.85;;;;;;;10.82;85.94;97281.59;7266486;39;20264;31
2024/01/03 16:10:05;;;;;;;5.85;2.20;;;;;;;10.73;87.76;97290.97;7256081;39;20375;31
2024/01/03 16:15:40;;;;;;;6.05;4.50;;;;;;;10.65;88.89;97281.25;7255483;40;20387;31
2024/01/03 16:21:16;;;;;;;6.27;3.43;;;;;;;10.57;89.81;97257.28;7224680;40;20324;31
2024/01/03 16:26:54;;;;;;;5.83;3.23;;;;;;;10.59;89.75;97287.50;7193280;40;20243;31
2024/01/03 16:32:10;;;;;;;3.38;1.90;;;;;;;10.54;91.08;97313.41;7209192;40;21250;31
2024/01/03 16:37:46;;;;;;;5.15;2.30;;;;;;;10.47;91.60;97299.97;7217437;40;20348;31
2024/01/03 16:43:06;;;;;;;4.17;2.43;;;;;;;10.42;92.59;97312.44;7237638;40;20438;31
2024/01/03 16:48:39;;;;;;;7.80;7.00;;;;;;;10.36;93.23;97290.69;7174561;40;20301;31
2024/01/03 16:54:16;;;;;;;8.75;7.85;;;;;;;10.32;93.41;97257.16;7225650;40;20310;31
2024/01/03 16:59:36;;;;;;;3.17;2.00;;;;;;;10.31;92.85;97254.69;7197630;40;20540;31
2024/01/03 17:04:56;;;;;;;4.60;1.30;;;;;;;10.26;91.92;97258.00;7197330;40;20489;31
2024/01/03 17:10:33;;;;;;;1.85;1.15;;;;;;;10.22;88.90;97256.75;7224611;40;20308;31
2024/01/03 17:15:53;;;;;;;2.03;0.90;;;;;;;10.18;89.56;97252.84;7209079;40;20399;31
2024/01/03 17:21:26;;;;;;;2.83;0.90;;;;;;;10.07;90.03;97245.41;7253632;40;20907;31
2024/01/03 17:27:00;;;;;;;1.80;1.00;;;;;;;10.08;89.65;97267.75;7262250;40;20499;31
2024/01/03 17:32:22;;;;;;;2.00;0.90;;;;;;;10.05;89.53;97278.94;7217265;40;20381;31
2024/01/03 17:37:40;;;;;;;2.60;1.10;;;;;;;9.97;88.93;97274.59;7196720;40;20246;31
2024/01/03 17:43:18;;;;;;;1.60;1.30;;;;;;;9.89;89.14;97278.34;7220653;39;20259;31
2024/01/03 17:53:39;;;;;;;4.90;3.00;;;;;;;9.80;90.19;97270.69;7277117;40;21324;31
2024/01/03 17:59:16;;;;;;;3.30;2.40;;;;;;;9.70;90.70;97314.16;7300243;39;20261;31
2024/01/03 18:04:52;;;;;;;3.10;1.93;;;;;;;9.63;91.16;97297.22;7297466;39;20237;31
2024/01/03 18:10:22;;;;;;;1.10;0.80;;;;;;;9.61;90.95;97296.56;7282006;39;20301;31
2024/01/03 18:20:59;;;;;;;1.84;1.16;;;;;;;9.62;89.96;97284.78;7277216;40;21568;31
2024/01/03 18:31:25;;;;;;;1.37;1.00;;;;;;;9.55;90.60;97312.72;7305919;39;20860;31
2024/01/03 18:37:02;;;;;;;1.35;0.75;;;;;;;9.47;91.44;97319.97;7255930;40;20245;31
2024/01/03 18:42:38;;;;;;;1.50;0.87;;;;;;;9.47;92.13;97335.28;7270761;39;20253;31
2024/01/03 18:47:59;;;;;;;4.60;1.30;;;;;;;9.49;92.36;97327.81;7260951;40;20241;31
2024/01/03 18:53:50;;;;;;;2.67;1.20;;;;;;;9.47;93.02;97327.19;7262543;40;20252;31
2024/01/03 18:59:26;;;;;;;2.10;1.10;;;;;;;9.48;92.85;97337.72;7196042;40;20265;31
2024/01/03 19:10:06;;;;;;;2.37;1.10;;;;;;;9.47;93.83;97360.31;7230889;40;20760;31
2024/01/03 19:20:47;;;;;;;2.80;1.30;;;;;;;9.52;93.63;97372.31;7294315;39;20303;31
2024/01/03 19:31:26;;;;;;;4.57;1.80;;;;;;;9.46;93.24;97368.56;7240162;40;20502;31
2024/01/03 19:41:47;;;;;;;3.50;1.70;;;;;;;9.43;94.12;97375.16;7261231;40;21309;31
2024/01/03 19:52:30;;;;;;;2.73;1.80;;;;;;;9.43;94.64;97395.88;7320678;39;20886;31
2024/01/03 19:58:04;;;;;;;2.10;1.70;;;;;;;9.39;93.80;97386.56;7299782;39;20241;31
2024/01/03 20:03:39;;;;;;;3.30;1.20;;;;;;;9.36;93.83;97392.31;7283807;40;20262;31
2024/01/03 20:09:17;;;;;;;4.72;1.50;;;;;;;9.33;93.24;97372.06;7318874;39;20320;31
2024/01/03 20:14:47;;;;;;;2.97;1.30;;;;;;;9.34;93.91;97373.72;7227894;40;20302;31
2024/01/03 20:20:26;;;;;;;2.27;1.20;;;;;;;9.36;93.62;97357.38;7247166;40;20357;31
2024/01/03 20:26:01;;;;;;;3.50;1.30;;;;;;;9.37;93.16;97367.09;7260882;39;20282;31
2024/01/03 20:31:36;;;;;;;4.80;1.20;;;;;;;9.38;93.03;97391.09;7215685;40;20270;31
2024/01/03 20:42:19;;;;;;;3.15;1.40;;;;;;;9.36;92.50;97389.63;7218541;40;20275;31
2024/01/03 20:47:39;;;;;;;5.05;1.60;;;;;;;9.38;92.26;97384.91;7194138;40;20270;31
2024/01/03 20:58:21;;;;;;;2.85;1.40;;;;;;;9.32;91.27;97394.59;7277492;40;20412;31
2024/01/03 21:08:58;;;;;;;4.93;1.90;;;;;;;9.33;91.37;97398.12;7312235;39;20734;31
2024/01/03 21:19:41;;;;;;;2.93;1.37;;;;;;;9.30;90.95;97411.97;7301599;39;20282;31
2024/01/03 21:25:01;;;;;;;4.47;1.37;;;;;;;9.30;91.67;97407.41;7297483;39;20241;31
2024/01/03 21:35:42;;;;;;;2.70;1.30;;;;;;;9.28;92.05;97422.09;7276375;39;20425;31
2024/01/03 21:46:21;;;;;;;4.50;1.30;;;;;;;9.27;91.38;97448.13;7317637;39;21248;31
2024/01/03 21:52:12;;;;;;;2.40;1.10;;;;;;;9.27;91.04;97428.47;7235773;40;20442;31
2024/01/03 21:57:32;;;;;;;1.97;1.10;;;;;;;9.25;91.25;97412.56;7217642;40;20304;31
2024/01/03 22:03:08;;;;;;;2.97;1.33;;;;;;;9.20;90.27;97439.22;7176027;40;20259;31
2024/01/03 22:08:45;;;;;;;4.67;2.70;;;;;;;9.17;90.10;97438.81;7206726;40;20356;31
2024/01/03 22:14:20;;;;;;;0.80;0.70;;;;;;;9.18;90.04;97454.72;7219105;40;20289;31
2024/01/03 22:25:02;;;;;;;4.67;1.93;;;;;;;9.17;91.83;97466.50;7286885;39;20420;31
2024/01/03 22:35:26;;;;;;;3.97;2.40;;;;;;;9.23;91.41;97473.75;7316111;39;20644;31
2024/01/03 22:41:03;;;;;;;3.15;1.30;;;;;;;9.26;91.34;97494.06;7299879;39;20259;31
2024/01/03 22:46:20;;;;;;;3.50;1.45;;;;;;;9.28;91.37;97478.53;7221691;40;20437;31
2024/01/03 22:51:56;;;;;;;6.03;1.73;;;;;;;9.26;91.34;97476.03;7255969;40;20392;31
2024/01/03 23:02:37;;;;;;;3.17;1.50;;;;;;;9.28;91.73;97502.72;7257143;39;20276;31
2024/01/03 23:08:12;;;;;;;3.50;1.70;;;;;;;9.31;90.87;97476.28;7198901;40;20332;31
2024/01/03 23:13:29;;;;;;;2.20;1.00;;;;;;;9.35;90.43;97469.47;7151132;40;20361;31
2024/01/03 23:19:03;;;;;;;2.70;1.20;;;;;;;9.34;89.91;97483.13;7182346;40;20427;31
2024/01/03 23:29:35;;;;;;;2.67;1.20;;;;;;;9.36;90.06;97489.12;7247949;40;20516;31
2024/01/03 23:35:12;;;;;;;3.03;1.50;;;;;;;9.32;89.88;97490.53;7198690;40;20257;31
2024/01/03 23:40:30;;;;;;;5.50;1.60;;;;;;;9.36;89.24;97499.88;7029416;40;20227;31
2024/01/03 23:46:07;;;;;;;4.20;1.40;;;;;;;9.36;89.12;97505.25;7302800;39;20275;31
2024/01/03 23:56:45;;;;;;;4.07;1.35;;;;;;;9.33;88.56;97502.97;7286628;39;20684;31
